Aérodrome :
LOGIN :

S'inscrire | Disclaimer

   EN    FR    IT 

 










Légende :    VFR   VFR Marginal   IFR   IFR Intensif   IFR Très Intensif
Visi : 
Plafond : 
>= 8 km
>= 3000ft
5 à 8 km
1000 à 3000 ft
1500m à 5 km
500 à 1000 ft
800 à 1500m
200 à 500 ft
< 800m
< 200 ft
Symboles :   Orages  Brouillard  Fortes neiges  Fortes précipitations  Vent > 20 kt
SIGMETs :   Divers  Orages  Givrage  Turbulence  Onde Orograph.  Cendres Volcan.






- Altitude de l'aérodrome : 288 ft
- Code IATA : BZZ


EGVN - RAF Brize Norton

DERNIER METAR :
  • 290420Z 05007KT 3500 HZ OVC006 07/06 Q1024 NOSIG RMK YLO1 YLO1

METARs EXPIRÉS :
  • 290350Z 07006KT 3500 HZ OVC006 08/06 Q1024 NOSIG RMK YLO1 YLO1
  • 290320Z 07006KT 3500 HZ OVC007 08/07 Q1024 TEMPO OVC006 RMK YLO1 TEMPO YLO1
  • 290250Z 07006KT 3500 HZ OVC007 08/07 Q1024 TEMPO OVC006
  • 290220Z 06005KT 3500 HZ OVC007 08/07 Q1024 TEMPO OVC006 RMK YLO1 TEMPO YLO1
  • 290150Z 05005KT 3500 HZ OVC005 08/07 Q1024 NOSIG RMK YLO1 YLO1

TAF AMD TAF EGVN
Valide du 29 à 02h jusqu'au 30 à 00h UTC


290227Z 2902/2924 07005KT 2500 BR OVC006
TEMPO 2902/2903 OVC007
PROB40 2903/2912 1200 MIFG OVC002
PROB30 2903/2912 0300 FG BKN001
PROB40 2918/2924 1200 MIFG OVC002



MET'MAP, la Météo Aéronautique d'un coup d'oeil ! - Copyright ORBIFLY Décembre 2007 - Disclaimer

ORBIFLY MET'MAP TEAM :

Programmation & Développement : Alexandra Zaïnal
Sur une idée originale de : Baudouin d'Aumeries
Assistance à la programmation : Marc-Olivier Méhu
Soutien technique & logistique : Manuel Goepfert

Contact : metmap@orbifly.com




SOURCES & CREDITS :

   NOAA